Time;durP1;ratioP1;P1;durP2;ratioP2;P2;SDS_P1;SDS_P2;PMS_P1;PMS_P2;Temp;Humidity;BMP_temperature;BMP_pressure;BME280_temperature;BME280_humidity;BME280_pressure;Samples;Min_cycle;Max_cycle;Signal;HPM_P1;HPM_P2
2023/12/24 00:01:11;;;;;;;0.87;0.60;;;13.50;99.90;;;;;;4948757;28;20045;-84
2023/12/24 00:03:38;;;;;;;2.78;0.70;;;12.80;99.90;;;;;;5025514;28;20018;-86
2023/12/24 00:06:04;;;;;;;2.60;1.25;;;12.80;99.90;;;;;;5003021;28;20160;-87
2023/12/24 00:08:31;;;;;;;3.55;0.70;;;12.90;99.90;;;;;;4983548;28;20290;-87
2023/12/24 00:10:58;;;;;;;2.80;0.98;;;12.90;99.90;;;;;;4998786;28;20006;-84
2023/12/24 00:13:25;;;;;;;2.43;0.50;;;12.90;99.90;;;;;;5007992;28;20030;-86
2023/12/24 00:15:51;;;;;;;2.20;0.80;;;12.90;99.90;;;;;;4980398;28;20036;-87
2023/12/24 00:18:17;;;;;;;1.88;0.60;;;12.90;99.90;;;;;;4987908;28;20215;-87
2023/12/24 00:20:43;;;;;;;3.58;0.60;;;13.00;99.90;;;;;;4996248;28;20104;-86
2023/12/24 00:23:10;;;;;;;1.50;0.60;;;12.90;99.90;;;;;;4986788;28;20448;-86
2023/12/24 00:25:37;;;;;;;1.67;0.80;;;12.90;99.90;;;;;;4992806;28;20095;-88
2023/12/24 00:28:04;;;;;;;0.95;0.60;;;13.00;99.90;;;;;;4990291;28;20044;-85
2023/12/24 00:30:30;;;;;;;1.23;0.65;;;13.00;99.90;;;;;;4993869;28;20033;-87
2023/12/24 00:32:57;;;;;;;1.15;0.45;;;13.00;99.90;;;;;;4980077;28;20046;-86
2023/12/24 00:35:24;;;;;;;2.58;0.50;;;12.60;99.90;;;;;;4997008;28;20318;-87
2023/12/24 00:37:50;;;;;;;1.20;0.50;;;13.00;99.90;;;;;;4991928;28;20030;-87
2023/12/24 00:40:17;;;;;;;1.48;0.60;;;13.00;99.90;;;;;;4985373;28;20029;-88
2023/12/24 00:42:43;;;;;;;1.10;0.70;;;13.00;99.90;;;;;;5011912;28;20037;-86
2023/12/24 00:45:10;;;;;;;1.63;0.50;;;13.10;99.90;;;;;;5012475;28;20037;-87
2023/12/24 00:47:36;;;;;;;1.47;0.50;;;13.10;99.90;;;;;;5002629;28;20046;-86
2023/12/24 00:50:03;;;;;;;0.80;0.50;;;13.10;99.90;;;;;;4995356;28;20151;-86
2023/12/24 00:52:29;;;;;;;1.02;0.57;;;13.10;99.90;;;;;;5000750;28;20022;-86
2023/12/24 00:54:55;;;;;;;1.33;0.60;;;13.00;99.90;;;;;;4987400;28;20391;-85
2023/12/24 00:57:21;;;;;;;1.40;0.60;;;13.00;99.90;;;;;;5008573;28;20345;-87
2023/12/24 00:59:47;;;;;;;1.13;0.60;;;13.00;99.90;;;;;;5009115;28;20032;-86
2023/12/24 01:02:12;;;;;;;1.50;0.60;;;13.00;99.90;;;;;;5007569;28;20219;-85
2023/12/24 01:04:38;;;;;;;1.33;0.60;;;13.00;99.90;;;;;;4994798;28;20037;-89
2023/12/24 01:07:04;;;;;;;2.33;0.80;;;13.00;99.90;;;;;;5011479;28;20080;-87
2023/12/24 01:09:30;;;;;;;0.88;0.50;;;13.00;99.90;;;;;;5003875;28;20431;-87
2023/12/24 01:11:56;;;;;;;0.70;0.53;;;13.00;99.90;;;;;;4998753;28;20025;-87
2023/12/24 01:14:22;;;;;;;1.45;0.60;;;13.00;99.90;;;;;;4995692;28;20057;-86
2023/12/24 01:16:48;;;;;;;1.25;0.50;;;13.00;99.90;;;;;;4998474;28;20087;-85
2023/12/24 01:19:14;;;;;;;2.90;0.65;;;12.90;99.90;;;;;;4959652;28;20644;-87
2023/12/24 01:21:40;;;;;;;1.53;0.53;;;13.00;99.90;;;;;;5002302;28;20032;-86
2023/12/24 01:24:06;;;;;;;1.05;0.50;;;13.00;99.90;;;;;;4989152;28;20553;-85
2023/12/24 01:26:34;;;;;;;2.65;0.60;;;13.00;99.90;;;;;;4995012;28;20597;-87
2023/12/24 01:29:00;;;;;;;3.22;0.60;;;13.00;99.90;;;;;;5010319;28;20067;-88
2023/12/24 01:31:27;;;;;;;1.13;0.40;;;13.00;99.90;;;;;;5008227;28;20076;-86
2023/12/24 01:33:53;;;;;;;3.35;0.80;;;13.00;99.90;;;;;;4994845;28;20025;-85
2023/12/24 01:36:19;;;;;;;1.85;0.50;;;13.00;99.90;;;;;;5015059;28;20224;-87
2023/12/24 01:38:46;;;;;;;1.08;0.57;;;13.00;99.90;;;;;;5018857;28;20059;-88
2023/12/24 01:41:12;;;;;;;0.95;0.50;;;13.00;99.90;;;;;;4982204;28;20106;-84
2023/12/24 01:43:43;;;;;;;1.73;0.60;;;13.00;99.90;;;;;;5020063;28;20036;-84
2023/12/24 01:46:11;;;;;;;1.77;0.40;;;13.00;99.90;;;;;;5007610;28;20515;-86
2023/12/24 01:48:38;;;;;;;1.25;0.40;;;13.00;99.90;;;;;;5010537;28;20055;-87
2023/12/24 01:51:04;;;;;;;0.82;0.40;;;12.90;99.90;;;;;;4998964;28;20025;-87
2023/12/24 01:53:32;;;;;;;3.90;1.20;;;12.90;99.90;;;;;;4989269;28;20114;-85
2023/12/24 01:56:01;;;;;;;1.77;0.57;;;12.80;99.90;;;;;;4999259;28;20032;-87
2023/12/24 01:58:27;;;;;;;1.40;0.40;;;12.80;99.90;;;;;;4993983;28;20158;-86
2023/12/24 02:00:53;;;;;;;2.28;0.50;;;12.80;99.90;;;;;;4997650;28;20039;-86
2023/12/24 02:03:20;;;;;;;1.00;0.60;;;12.00;99.90;;;;;;4991620;28;26040;-86
2023/12/24 02:05:47;;;;;;;2.10;0.50;;;12.70;99.90;;;;;;5018095;28;20040;-87
2023/12/24 02:08:14;;;;;;;2.60;0.50;;;12.70;99.90;;;;;;5025849;28;20030;-86
2023/12/24 02:10:41;;;;;;;0.90;0.40;;;12.60;99.90;;;;;;5012210;28;20103;-84
2023/12/24 02:13:07;;;;;;;0.55;0.55;;;12.60;99.90;;;;;;5016254;28;20036;-87
2023/12/24 02:15:34;;;;;;;0.90;0.60;;;12.60;99.90;;;;;;4997140;28;20045;-85
2023/12/24 02:18:01;;;;;;;0.77;0.50;;;12.60;99.90;;;;;;5007251;28;20552;-84
2023/12/24 02:20:26;;;;;;;2.00;0.68;;;12.60;99.90;;;;;;4996053;28;20510;-87
2023/12/24 02:22:53;;;;;;;1.48;0.52;;;12.60;99.90;;;;;;5001360;28;20033;-86
2023/12/24 02:25:20;;;;;;;1.98;0.50;;;12.60;99.90;;;;;;4984408;28;20261;-87
2023/12/24 02:28:10;;;;;;;1.13;0.50;;;12.50;99.90;;;;;;4982890;28;20679;-86
2023/12/24 02:30:49;;;;;;;1.02;0.50;;;12.50;99.90;;;;;;5031049;28;20024;-87
2023/12/24 02:33:17;;;;;;;1.40;0.70;;;12.50;99.90;;;;;;5005316;28;20143;-87
2023/12/24 02:35:45;;;;;;;3.10;0.93;;;12.40;99.90;;;;;;4978458;28;20163;-85
2023/12/24 02:38:11;;;;;;;1.67;0.70;;;12.50;99.90;;;;;;5009874;28;20230;-85
2023/12/24 02:40:37;;;;;;;1.10;0.70;;;12.50;99.90;;;;;;5007898;28;20038;-85
2023/12/24 02:43:03;;;;;;;1.00;0.68;;;12.40;99.90;;;;;;5013282;28;20037;-86
2023/12/24 02:45:29;;;;;;;1.97;0.90;;;12.40;99.90;;;;;;5008223;28;20032;-87
2023/12/24 02:47:55;;;;;;;0.80;0.60;;;12.40;99.90;;;;;;5030308;28;20033;-86
2023/12/24 02:50:21;;;;;;;0.80;0.60;;;12.40;99.90;;;;;;4987278;28;20953;-85
2023/12/24 02:52:47;;;;;;;1.08;0.55;;;12.40;99.90;;;;;;5019210;28;20629;-84
2023/12/24 02:55:12;;;;;;;0.60;0.60;;;12.40;99.90;;;;;;5017942;28;20537;-84
2023/12/24 02:57:38;;;;;;;0.85;0.52;;;12.40;99.90;;;;;;5001812;28;20025;-85
2023/12/24 03:00:08;;;;;;;1.13;0.53;;;12.40;99.90;;;;;;5000211;28;20040;-85
2023/12/24 03:02:34;;;;;;;0.40;0.40;;;12.30;99.90;;;;;;5001781;28;20376;-86
2023/12/24 03:05:03;;;;;;;0.57;0.50;;;12.30;99.90;;;;;;4995671;28;20651;-87
2023/12/24 03:07:29;;;;;;;0.50;0.50;;;12.40;99.90;;;;;;4991219;28;20029;-85
2023/12/24 03:09:55;;;;;;;0.63;0.50;;;12.30;99.90;;;;;;5009313;28;20025;-86
2023/12/24 03:12:21;;;;;;;1.10;0.40;;;12.30;99.90;;;;;;5011609;28;20025;-87
2023/12/24 03:14:47;;;;;;;0.50;0.40;;;12.30;99.90;;;;;;5000843;28;20021;-84
2023/12/24 03:17:12;;;;;;;0.40;0.40;;;12.30;99.90;;;;;;5001679;28;20032;-85
2023/12/24 03:19:38;;;;;;;0.43;0.40;;;12.30;99.90;;;;;;5003638;28;20517;-85
2023/12/24 03:22:04;;;;;;;0.40;0.40;;;12.30;99.90;;;;;;4997599;28;20039;-85
2023/12/24 03:24:30;;;;;;;0.40;0.40;;;12.30;99.90;;;;;;4999354;28;20166;-86
2023/12/24 03:26:56;;;;;;;0.82;0.40;;;12.30;99.90;;;;;;5030992;28;20055;-84
2023/12/24 03:29:22;;;;;;;1.23;0.50;;;12.30;99.90;;;;;;4983355;28;20033;-86
2023/12/24 03:31:47;;;;;;;0.35;0.35;;;12.30;99.90;;;;;;5008841;28;20033;-87
2023/12/24 03:34:14;;;;;;;0.30;0.30;;;12.30;99.90;;;;;;4996626;28;20029;-86
2023/12/24 03:36:40;;;;;;;0.40;0.40;;;12.30;99.90;;;;;;4977722;28;20493;-85
2023/12/24 03:39:06;;;;;;;1.37;0.40;;;12.30;99.90;;;;;;5029953;28;20021;-87
2023/12/24 03:41:32;;;;;;;0.95;0.50;;;12.30;99.90;;;;;;4999997;28;20502;-85
2023/12/24 03:43:58;;;;;;;0.50;0.50;;;12.30;99.90;;;;;;5004717;28;20029;-86
2023/12/24 03:46:24;;;;;;;0.70;0.40;;;12.30;99.90;;;;;;4995460;28;20030;-86
2023/12/24 03:48:50;;;;;;;0.90;0.50;;;12.30;99.90;;;;;;5021701;28;20075;-85
2023/12/24 03:51:18;;;;;;;0.70;0.50;;;12.30;99.90;;;;;;5009184;28;20510;-86
2023/12/24 03:53:44;;;;;;;1.30;0.50;;;12.30;99.90;;;;;;5008864;28;20124;-83
2023/12/24 03:56:10;;;;;;;0.70;0.50;;;12.30;99.90;;;;;;5019869;28;20482;-85
2023/12/24 03:58:37;;;;;;;0.90;0.50;;;12.20;99.90;;;;;;5019972;28;21566;-91
2023/12/24 04:01:12;;;;;;;0.50;0.40;;;12.30;99.90;;;;;;4993747;28;20140;-88
2023/12/24 04:03:40;;;;;;;0.75;0.57;;;12.30;99.90;;;;;;5012761;28;20264;-85
2023/12/24 04:06:13;;;;;;;0.37;0.33;;;12.30;99.90;;;;;;5030483;28;20456;-89
2023/12/24 04:08:38;;;;;;;0.40;0.40;;;12.30;99.90;;;;;;4975628;28;20181;-88
2023/12/24 04:11:16;;;;;;;0.68;0.40;;;12.30;99.90;;;;;;5030363;28;20050;-89
2023/12/24 04:13:43;;;;;;;0.50;0.40;;;12.30;99.90;;;;;;5001106;28;20037;-87
2023/12/24 04:16:09;;;;;;;0.50;0.50;;;12.30;99.90;;;;;;5030056;28;20091;-87
2023/12/24 04:18:35;;;;;;;0.67;0.50;;;12.30;99.90;;;;;;5017025;28;20044;-87
2023/12/24 04:21:02;;;;;;;0.45;0.40;;;12.30;99.90;;;;;;5014427;28;20033;-88
2023/12/24 04:23:28;;;;;;;0.60;0.50;;;12.30;99.90;;;;;;4996848;28;20016;-88
2023/12/24 04:25:54;;;;;;;0.50;0.50;;;12.30;99.90;;;;;;5045765;28;20025;-88
2023/12/24 04:28:19;;;;;;;0.30;0.30;;;12.30;99.90;;;;;;5031620;28;20009;-93
2023/12/24 04:30:48;;;;;;;1.45;0.50;;;12.30;99.90;;;;;;5023337;28;20105;-87
2023/12/24 04:33:14;;;;;;;0.50;0.50;;;12.30;99.90;;;;;;5024978;28;20749;-88
2023/12/24 04:35:40;;;;;;;1.63;0.50;;;12.30;99.90;;;;;;5045984;28;20056;-87
2023/12/24 04:38:06;;;;;;;0.93;0.60;;;12.30;99.90;;;;;;5009301;28;20021;-91
2023/12/24 04:40:32;;;;;;;1.00;0.50;;;12.30;99.90;;;;;;5017177;28;20056;-90
2023/12/24 04:43:00;;;;;;;0.50;0.50;;;12.30;99.90;;;;;;5023960;28;20021;-91
2023/12/24 04:45:25;;;;;;;1.25;0.60;;;11.00;99.90;;;;;;5046047;28;20184;-89
2023/12/24 04:47:53;;;;;;;0.97;0.50;;;12.40;99.90;;;;;;5022405;28;20033;-88
2023/12/24 04:50:19;;;;;;;0.63;0.60;;;12.40;99.90;;;;;;5016260;28;20235;-86
2023/12/24 04:52:44;;;;;;;0.80;0.50;;;12.40;99.90;;;;;;5030236;28;20025;-89
2023/12/24 04:55:10;;;;;;;0.70;0.53;;;12.40;99.90;;;;;;5008025;28;20656;-90
2023/12/24 04:57:36;;;;;;;0.47;0.47;;;12.30;99.90;;;;;;5019286;28;20025;-89
2023/12/24 05:00:05;;;;;;;1.98;0.60;;;12.40;99.90;;;;;;5019438;28;20079;-85
2023/12/24 05:02:33;;;;;;;1.43;0.80;;;12.40;99.90;;;;;;4987393;28;20470;-88
2023/12/24 05:05:01;;;;;;;1.85;0.63;;;12.40;99.90;;;;;;5015607;28;20029;-91
2023/12/24 05:07:29;;;;;;;1.85;0.77;;;12.40;99.90;;;;;;5017341;28;20494;-88
2023/12/24 05:09:55;;;;;;;1.83;0.70;;;12.10;99.90;;;;;;5022331;28;20470;-90
2023/12/24 05:12:21;;;;;;;2.03;0.80;;;12.40;99.90;;;;;;5015282;28;20044;-85
2023/12/24 05:14:49;;;;;;;3.13;0.90;;;11.50;99.90;;;;;;5001038;28;20111;-90
2023/12/24 05:17:14;;;;;;;1.95;0.80;;;13.60;99.90;;;;;;4993227;28;20387;-91
2023/12/24 05:19:41;;;;;;;2.38;0.80;;;12.50;99.90;;;;;;5021350;28;20548;-87
2023/12/24 05:22:06;;;;;;;1.50;0.80;;;12.50;99.90;;;;;;5005576;28;20091;-86
2023/12/24 05:24:32;;;;;;;1.58;0.90;;;12.50;99.90;;;;;;5020223;28;20040;-86
2023/12/24 05:26:58;;;;;;;1.77;0.82;;;12.40;99.90;;;;;;4994425;28;20049;-89
2023/12/24 05:29:24;;;;;;;2.23;1.03;;;12.40;99.90;;;;;;5000957;28;20021;-89
2023/12/24 05:31:50;;;;;;;2.13;0.90;;;12.50;99.90;;;;;;5000722;28;20211;-89
2023/12/24 05:34:16;;;;;;;2.97;1.13;;;12.50;99.90;;;;;;4976474;28;20164;-87
2023/12/24 05:36:42;;;;;;;2.10;0.80;;;;;;;;;;4998243;28;20057;-87
2023/12/24 05:39:11;;;;;;;2.60;0.82;;;12.50;99.90;;;;;;5007058;28;20029;-86
2023/12/24 05:41:36;;;;;;;1.92;0.80;;;12.60;99.90;;;;;;5011507;28;20029;-90
2023/12/24 05:44:02;;;;;;;1.17;0.80;;;12.50;99.90;;;;;;5008771;28;20218;-90
2023/12/24 05:46:28;;;;;;;2.42;0.90;;;12.50;99.90;;;;;;4986820;28;20048;-87
2023/12/24 05:48:54;;;;;;;1.70;0.90;;;11.20;99.90;;;;;;4990049;28;20036;-85
2023/12/24 05:51:23;;;;;;;2.03;1.20;;;12.50;99.90;;;;;;5025647;28;20028;-88
2023/12/24 05:53:48;;;;;;;3.03;0.90;;;12.10;99.90;;;;;;4984141;28;20283;-89
2023/12/24 05:56:14;;;;;;;1.95;0.80;;;12.50;99.90;;;;;;5002889;28;20372;-88
2023/12/24 05:58:40;;;;;;;3.90;0.80;;;12.50;99.90;;;;;;4975243;28;20036;-89
2023/12/24 06:01:06;;;;;;;1.80;0.70;;;12.50;99.90;;;;;;4973675;28;20417;-86
2023/12/24 06:03:31;;;;;;;1.90;0.80;;;12.50;99.90;;;;;;5028820;28;20025;-87
2023/12/24 06:05:57;;;;;;;1.60;0.98;;;12.50;99.90;;;;;;4978274;28;20501;-90
2023/12/24 06:08:23;;;;;;;1.63;0.87;;;13.90;99.90;;;;;;5000784;28;20097;-89
2023/12/24 06:10:49;;;;;;;1.45;0.75;;;12.50;99.90;;;;;;5024315;28;20036;-91
2023/12/24 06:13:15;;;;;;;2.33;0.77;;;12.00;99.90;;;;;;4981709;28;20683;-88
2023/12/24 06:15:41;;;;;;;2.33;0.70;;;12.50;99.90;;;;;;5030525;28;20029;-83
2023/12/24 06:18:09;;;;;;;1.17;0.70;;;12.50;99.90;;;;;;5012379;28;20251;-87
2023/12/24 06:20:37;;;;;;;1.55;0.77;;;12.50;99.90;;;;;;4991498;28;20547;-84
2023/12/24 06:23:03;;;;;;;2.72;0.95;;;12.50;99.90;;;;;;4976697;28;20490;-90
2023/12/24 06:25:29;;;;;;;0.98;0.60;;;12.50;99.90;;;;;;5026861;28;20538;-90
2023/12/24 06:27:55;;;;;;;0.80;0.70;;;;;;;;;;4990509;28;20599;-89
2023/12/24 06:30:21;;;;;;;1.13;0.60;;;12.60;99.90;;;;;;4995436;28;20558;-88
2023/12/24 06:32:47;;;;;;;1.92;0.80;;;12.60;99.90;;;;;;5015839;28;20053;-88
2023/12/24 06:35:14;;;;;;;1.55;0.70;;;12.50;99.90;;;;;;4998019;28;20029;-88
2023/12/24 06:37:40;;;;;;;1.00;0.77;;;12.50;99.90;;;;;;4980947;28;20538;-90
2023/12/24 06:40:06;;;;;;;1.55;0.68;;;12.30;99.90;;;;;;5003397;28;20025;-90
2023/12/24 06:42:32;;;;;;;0.85;0.60;;;12.50;99.90;;;;;;5000583;28;20053;-87
2023/12/24 06:44:59;;;;;;;0.63;0.60;;;12.60;99.90;;;;;;4978973;28;20045;-90
2023/12/24 06:47:25;;;;;;;0.70;0.60;;;12.50;99.90;;;;;;5011603;28;20039;-90
2023/12/24 06:49:51;;;;;;;2.10;0.60;;;12.50;99.90;;;;;;4996206;28;20112;-89
2023/12/24 06:52:19;;;;;;;0.90;0.70;;;12.50;99.90;;;;;;4975127;28;20241;-86
2023/12/24 06:54:46;;;;;;;1.92;0.70;;;12.60;99.90;;;;;;4981227;28;20410;-90
2023/12/24 06:57:11;;;;;;;1.30;0.60;;;12.60;99.90;;;;;;4994454;28;20740;-88
2023/12/24 06:59:37;;;;;;;2.05;0.60;;;12.60;99.90;;;;;;5028038;28;20037;-86
2023/12/24 07:02:03;;;;;;;0.60;0.60;;;;;;;;;;4985203;28;20039;-90
2023/12/24 07:04:32;;;;;;;1.20;0.60;;;12.60;99.90;;;;;;5001166;28;20390;-90
2023/12/24 07:06:58;;;;;;;1.17;0.70;;;12.60;99.90;;;;;;4987848;28;20478;-89
2023/12/24 07:09:24;;;;;;;1.03;0.80;;;12.60;99.90;;;;;;4992785;28;20236;-89
2023/12/24 07:11:50;;;;;;;1.80;0.60;;;;;;;;;;4990694;28;20033;-87
2023/12/24 07:14:16;;;;;;;1.88;0.50;;;12.60;99.90;;;;;;4984370;28;20275;-89
2023/12/24 07:16:45;;;;;;;0.98;0.60;;;12.60;99.90;;;;;;4978033;28;20045;-90
2023/12/24 07:19:11;;;;;;;1.00;0.60;;;12.60;99.90;;;;;;5015690;28;20137;-88
2023/12/24 07:21:39;;;;;;;1.65;0.50;;;12.60;99.90;;;;;;4985833;28;20104;-90
2023/12/24 07:24:06;;;;;;;1.15;0.60;;;12.60;99.90;;;;;;4992325;28;20083;-86
2023/12/24 07:26:33;;;;;;;1.33;0.50;;;12.60;99.90;;;;;;4994201;28;20134;-85
2023/12/24 07:28:59;;;;;;;1.27;0.40;;;12.70;99.90;;;;;;4993955;28;20136;-88
2023/12/24 07:31:25;;;;;;;1.10;0.45;;;12.60;99.90;;;;;;4998971;28;20029;-85
2023/12/24 07:33:51;;;;;;;0.80;0.60;;;12.60;99.90;;;;;;5009124;28;20060;-86
2023/12/24 07:36:17;;;;;;;0.60;0.60;;;12.60;99.90;;;;;;5032667;28;20513;-84
2023/12/24 07:38:42;;;;;;;0.73;0.60;;;12.70;99.90;;;;;;4996005;28;20415;-87
2023/12/24 07:41:08;;;;;;;0.77;0.60;;;12.70;99.90;;;;;;4989482;28;20060;-86
2023/12/24 07:43:34;;;;;;;1.13;0.60;;;12.70;99.90;;;;;;5013040;28;20609;-91
2023/12/24 07:46:03;;;;;;;0.80;0.50;;;12.70;99.90;;;;;;5011239;28;20025;-89
2023/12/24 07:48:29;;;;;;;1.40;0.63;;;12.70;99.90;;;;;;5013816;28;20041;-87
2023/12/24 07:50:55;;;;;;;1.30;0.70;;;12.70;99.90;;;;;;5007749;28;20024;-85
2023/12/24 07:53:21;;;;;;;2.55;0.70;;;12.70;99.90;;;;;;5004396;28;20113;-86
2023/12/24 07:55:47;;;;;;;2.00;1.00;;;12.70;99.90;;;;;;5011714;28;20033;-89
2023/12/24 07:58:13;;;;;;;1.90;0.70;;;12.70;99.90;;;;;;4998151;28;20395;-88
2023/12/24 08:00:38;;;;;;;1.05;0.77;;;12.70;99.90;;;;;;4994827;28;20037;-88
2023/12/24 08:03:05;;;;;;;0.97;0.60;;;12.70;99.90;;;;;;4986129;28;20253;-83
2023/12/24 08:05:32;;;;;;;1.05;0.70;;;12.70;99.90;;;;;;5016811;28;20116;-89
2023/12/24 08:07:58;;;;;;;1.20;0.73;;;12.70;99.90;;;;;;5009868;28;20121;-91
2023/12/24 08:10:24;;;;;;;0.80;0.60;;;12.80;99.90;;;;;;4970695;28;20068;-85
2023/12/24 08:12:49;;;;;;;1.93;0.90;;;12.70;99.90;;;;;;5016583;28;20366;-88
2023/12/24 08:15:17;;;;;;;0.60;0.60;;;12.80;99.90;;;;;;4996643;28;20441;-87
2023/12/24 08:17:43;;;;;;;1.08;0.70;;;12.80;99.90;;;;;;5012705;28;20056;-86
2023/12/24 08:20:11;;;;;;;1.13;0.83;;;11.60;99.90;;;;;;4982479;28;20049;-88
2023/12/24 08:22:37;;;;;;;0.80;0.57;;;12.80;99.90;;;;;;4993698;28;20080;-86
2023/12/24 08:25:03;;;;;;;0.73;0.60;;;13.20;99.90;;;;;;4974485;28;20029;-85
2023/12/24 08:27:29;;;;;;;1.02;0.68;;;12.80;99.90;;;;;;5018938;28;20660;-91
2023/12/24 08:29:58;;;;;;;1.07;0.70;;;12.80;99.90;;;;;;4992273;28;20330;-86
2023/12/24 08:32:24;;;;;;;0.70;0.55;;;12.90;99.90;;;;;;4987966;28;20730;-92
2023/12/24 08:34:49;;;;;;;1.50;0.70;;;12.90;99.90;;;;;;5002895;28;20052;-90
2023/12/24 08:37:15;;;;;;;1.77;0.70;;;12.90;99.90;;;;;;5018802;28;20580;-82
2023/12/24 08:39:41;;;;;;;0.90;0.63;;;14.30;99.90;;;;;;5031460;28;20030;-90
2023/12/24 08:42:07;;;;;;;2.15;0.90;;;12.90;99.90;;;;;;4994665;28;20121;-89
2023/12/24 08:44:35;;;;;;;1.23;0.70;;;13.00;99.90;;;;;;4994313;28;20021;-88
2023/12/24 08:47:01;;;;;;;1.30;0.70;;;12.90;99.90;;;;;;5011168;28;20040;-91
2023/12/24 08:49:27;;;;;;;0.63;0.60;;;13.00;99.90;;;;;;4986337;28;20064;-89
2023/12/24 08:51:53;;;;;;;3.22;0.70;;;13.00;99.90;;;;;;4998060;28;20458;-87
2023/12/24 08:54:18;;;;;;;0.90;0.70;;;13.00;99.90;;;;;;5026228;28;20247;-85
2023/12/24 08:56:44;;;;;;;2.08;0.60;;;13.00;99.90;;;;;;5006915;28;20191;-86
2023/12/24 08:59:10;;;;;;;0.80;0.60;;;13.00;99.90;;;;;;5000982;28;20497;-85
2023/12/24 09:01:42;;;;;;;1.47;0.60;;;13.00;99.90;;;;;;4980148;28;20410;-89
2023/12/24 09:04:09;;;;;;;0.70;0.50;;;13.00;99.90;;;;;;5015223;28;20026;-88
2023/12/24 09:06:37;;;;;;;0.50;0.50;;;13.00;99.90;;;;;;4979812;28;20111;-86
2023/12/24 09:09:04;;;;;;;0.85;0.57;;;13.00;99.90;;;;;;5005407;28;20056;-91
2023/12/24 09:11:30;;;;;;;0.93;0.60;;;13.00;99.90;;;;;;5016981;28;20422;-88
2023/12/24 09:13:55;;;;;;;1.75;0.77;;;13.10;99.90;;;;;;5005256;28;20215;-87
2023/12/24 09:16:21;;;;;;;1.30;0.60;;;13.00;99.90;;;;;;4989371;28;20116;-83
2023/12/24 09:18:48;;;;;;;1.20;0.70;;;13.10;99.90;;;;;;4990681;28;20033;-89
2023/12/24 09:21:14;;;;;;;0.60;0.50;;;13.10;99.90;;;;;;4993986;28;20762;-85
2023/12/24 09:23:40;;;;;;;0.77;0.50;;;13.10;99.90;;;;;;5017264;28;20033;-88
2023/12/24 09:26:05;;;;;;;0.60;0.50;;;13.10;99.90;;;;;;5020468;28;20036;-90
2023/12/24 09:28:31;;;;;;;0.50;0.43;;;13.10;99.90;;;;;;4998208;28;20051;-92
2023/12/24 09:30:57;;;;;;;0.68;0.50;;;13.10;99.90;;;;;;4986785;28;20258;-86
2023/12/24 09:33:24;;;;;;;0.87;0.50;;;13.10;99.90;;;;;;4977523;28;20041;-90
2023/12/24 09:35:50;;;;;;;0.57;0.45;;;13.20;99.90;;;;;;4993774;28;20152;-85
2023/12/24 09:38:16;;;;;;;1.25;0.68;;;13.20;99.90;;;;;;4998094;28;20022;-88
2023/12/24 09:40:42;;;;;;;0.95;0.60;;;13.20;99.90;;;;;;4997619;28;20037;-89
2023/12/24 09:43:09;;;;;;;0.83;0.60;;;13.20;99.90;;;;;;5007566;28;20018;-89
2023/12/24 09:45:34;;;;;;;0.90;0.40;;;13.20;99.90;;;;;;4968982;28;20029;-85
2023/12/24 09:48:01;;;;;;;1.65;0.70;;;13.20;99.90;;;;;;5002856;28;20018;-89
2023/12/24 09:50:27;;;;;;;1.67;0.70;;;13.20;99.90;;;;;;5005636;28;20033;-89
2023/12/24 09:52:53;;;;;;;1.30;0.60;;;14.60;99.90;;;;;;4952293;28;20036;-87
2023/12/24 09:55:22;;;;;;;1.35;0.75;;;13.20;99.90;;;;;;5010202;28;20024;-85
2023/12/24 09:57:47;;;;;;;0.95;0.50;;;13.30;99.90;;;;;;5004059;28;20245;-88
2023/12/24 10:00:16;;;;;;;0.97;0.60;;;13.30;99.90;;;;;;4984274;28;20030;-90
2023/12/24 10:02:44;;;;;;;1.23;0.63;;;13.30;99.90;;;;;;4995058;28;20079;-86
2023/12/24 10:05:11;;;;;;;2.10;0.70;;;13.30;99.90;;;;;;5002395;28;20044;-90
2023/12/24 10:07:38;;;;;;;2.28;0.70;;;13.30;99.90;;;;;;4979354;28;20025;-89
2023/12/24 10:10:07;;;;;;;1.50;0.63;;;13.30;99.90;;;;;;5018565;28;20023;-91
2023/12/24 10:12:33;;;;;;;1.50;0.60;;;;;;;;;;4993912;28;20099;-86
2023/12/24 10:15:00;;;;;;;1.48;0.70;;;13.30;99.90;;;;;;4977585;28;20345;-83
2023/12/24 10:17:29;;;;;;;2.40;0.70;;;13.30;99.90;;;;;;5001537;28;20096;-93
2023/12/24 10:19:55;;;;;;;1.13;0.70;;;13.40;99.90;;;;;;5001203;28;20025;-86
2023/12/24 10:22:24;;;;;;;2.28;0.88;;;13.40;99.90;;;;;;4999685;28;20226;-91
2023/12/24 10:25:00;;;;;;;1.03;0.60;;;13.40;99.90;;;;;;4973540;28;21096;-91
2023/12/24 10:27:26;;;;;;;1.10;0.60;;;13.40;99.90;;;;;;5010815;28;20030;-87
2023/12/24 10:29:51;;;;;;;1.45;0.73;;;13.40;99.90;;;;;;4976226;28;20496;-86
2023/12/24 10:32:24;;;;;;;1.17;0.70;;;13.40;99.90;;;;;;5007815;28;20566;-92
2023/12/24 10:34:57;;;;;;;1.70;0.80;;;13.40;99.90;;;;;;4978388;28;20379;-88
2023/12/24 10:37:29;;;;;;;3.03;0.70;;;13.40;99.90;;;;;;5018639;28;20033;-89
2023/12/24 10:40:15;;;;;;;1.80;0.77;;;13.30;99.90;;;;;;4982422;28;20512;-87
2023/12/24 10:42:41;;;;;;;3.00;0.70;;;13.50;99.90;;;;;;5019718;28;20104;-84
2023/12/24 10:45:09;;;;;;;1.50;0.70;;;13.50;99.90;;;;;;5009000;28;20526;-87
2023/12/24 10:47:36;;;;;;;2.20;0.70;;;13.50;99.90;;;;;;4993105;28;20247;-86
2023/12/24 10:50:03;;;;;;;2.47;0.93;;;13.50;99.90;;;;;;4978839;28;20517;-84
2023/12/24 10:52:29;;;;;;;0.77;0.70;;;13.50;99.90;;;;;;5010815;28;20163;-87
2023/12/24 10:54:57;;;;;;;1.13;0.70;;;13.50;99.90;;;;;;4998103;28;20357;-90
2023/12/24 11:05:34;;;;;;;1.65;0.93;;;13.60;99.90;;;;;;5040345;28;20525;-86
2023/12/24 11:08:32;;;;;;;1.60;0.70;;;13.60;99.90;;;;;;5019299;28;20049;-90
2023/12/24 11:11:10;;;;;;;1.17;0.90;;;13.60;99.90;;;;;;5006819;28;20162;-90
2023/12/24 11:13:40;;;;;;;1.83;1.00;;;13.60;99.90;;;;;;5012007;28;20026;-92
2023/12/24 11:16:10;;;;;;;1.67;0.90;;;13.60;99.90;;;;;;5050833;28;20083;-86
2023/12/24 11:18:48;;;;;;;1.77;0.95;;;13.60;99.90;;;;;;5038882;28;20087;-89
2023/12/24 11:21:15;;;;;;;1.23;0.70;;;14.00;99.90;;;;;;5047538;28;20023;-87
2023/12/24 11:24:02;;;;;;;1.48;0.90;;;14.00;99.90;;;;;;5035851;28;20679;-89
2023/12/24 11:26:32;;;;;;;1.63;0.93;;;13.60;99.90;;;;;;5035662;28;20048;-91
2023/12/24 11:29:23;;;;;;;2.17;1.00;;;13.60;99.90;;;;;;5020713;28;20025;-88
2023/12/24 11:31:50;;;;;;;1.98;0.90;;;13.60;99.90;;;;;;5020122;28;20055;-93
2023/12/24 11:34:32;;;;;;;1.10;0.87;;;13.70;99.90;;;;;;5017711;28;20033;-91
2023/12/24 11:37:04;;;;;;;2.67;1.27;;;13.70;99.90;;;;;;4963611;28;20123;-85
2023/12/24 11:42:52;;;;;;;1.42;1.00;;;13.70;99.90;;;;;;5027067;28;20450;-85
2023/12/24 11:45:23;;;;;;;2.90;1.07;;;13.70;99.90;;;;;;4985893;28;20025;-91
2023/12/24 11:48:09;;;;;;;2.15;1.20;;;13.70;99.90;;;;;;5027099;28;20040;-91
2023/12/24 11:50:38;;;;;;;2.03;1.10;;;13.70;99.90;;;;;;5002644;28;20115;-92
2023/12/24 11:53:08;;;;;;;2.03;1.20;;;13.70;99.90;;;;;;5004360;28;20018;-86
2023/12/24 11:55:45;;;;;;;1.67;1.08;;;13.60;99.90;;;;;;5001173;28;20045;-84
2023/12/24 11:58:11;;;;;;;3.20;1.27;;;13.70;99.90;;;;;;5021782;28;20032;-87
2023/12/24 12:00:40;;;;;;;2.05;1.20;;;14.60;99.90;;;;;;4991155;28;20411;-85
2023/12/24 12:03:06;;;;;;;2.57;1.30;;;13.80;99.90;;;;;;5034142;28;20025;-86
2023/12/24 12:05:32;;;;;;;2.60;1.30;;;13.80;99.90;;;;;;4992458;28;20038;-88
2023/12/24 12:07:57;;;;;;;3.20;1.30;;;13.80;99.90;;;;;;4988232;28;20127;-90
2023/12/24 12:10:23;;;;;;;2.10;1.30;;;13.60;99.90;;;;;;5001840;28;20702;-87
2023/12/24 12:12:49;;;;;;;3.75;1.38;;;13.90;99.90;;;;;;4997792;28;20056;-87
2023/12/24 12:15:15;;;;;;;2.50;1.30;;;13.90;99.90;;;;;;5008131;28;20040;-85
2023/12/24 12:17:41;;;;;;;2.28;1.15;;;13.90;99.90;;;;;;4979854;28;20037;-88
2023/12/24 12:20:07;;;;;;;3.83;1.67;;;13.90;99.90;;;;;;4991101;28;20100;-87
2023/12/24 12:22:33;;;;;;;3.00;1.38;;;13.90;99.90;;;;;;4987332;28;20159;-85
2023/12/24 12:24:59;;;;;;;3.05;1.08;;;14.00;99.90;;;;;;4994189;28;20059;-90
2023/12/24 12:27:25;;;;;;;2.53;1.20;;;13.90;99.90;;;;;;5014411;28;20031;-86
2023/12/24 12:29:52;;;;;;;1.65;1.00;;;15.40;99.90;;;;;;4974359;28;20590;-87
2023/12/24 12:32:18;;;;;;;2.50;1.00;;;14.00;99.90;;;;;;4987727;28;20041;-89
2023/12/24 12:34:44;;;;;;;1.77;1.00;;;14.50;99.90;;;;;;4981413;28;20386;-92
2023/12/24 12:37:10;;;;;;;1.67;0.90;;;14.00;99.90;;;;;;5005155;28;20021;-88
2023/12/24 12:39:36;;;;;;;1.45;0.80;;;14.10;99.90;;;;;;4988941;28;20029;-89
2023/12/24 12:42:04;;;;;;;2.80;0.80;;;14.10;99.90;;;;;;5001725;28;20764;-91
2023/12/24 12:44:30;;;;;;;0.73;0.67;;;14.10;99.90;;;;;;4976328;28;20032;-88
2023/12/24 12:46:56;;;;;;;1.02;0.60;;;14.20;99.90;;;;;;4995965;28;20572;-87
2023/12/24 12:49:21;;;;;;;1.45;0.70;;;14.20;99.90;;;;;;5007671;28;20025;-88
2023/12/24 12:51:49;;;;;;;1.93;0.80;;;14.30;99.90;;;;;;4977413;28;20334;-86
2023/12/24 12:54:20;;;;;;;1.15;0.73;;;14.30;99.90;;;;;;4973404;28;20029;-87
2023/12/24 12:56:48;;;;;;;2.00;0.93;;;14.30;99.90;;;;;;4997817;28;20497;-87
2023/12/24 12:59:21;;;;;;;1.92;0.73;;;14.40;99.90;;;;;;5012066;28;20112;-88